createdAt,value
2022-07-29T00:02:16.116Z,100146.97
2022-07-29T00:04:48.496Z,100139.66
2022-07-29T00:07:19.338Z,100149.44
2022-07-29T00:09:51.199Z,100146.59
2022-07-29T00:12:26.499Z,100144.19
2022-07-29T00:14:59.944Z,100147.81
2022-07-29T00:17:31.167Z,100149.88
2022-07-29T00:20:03.997Z,100139.72
2022-07-29T00:22:35.321Z,100150.34
2022-07-29T00:25:06.639Z,100148.72
2022-07-29T00:27:37.147Z,100145.06
2022-07-29T00:30:10.480Z,100143.03
2022-07-29T00:32:41.577Z,100152.81
2022-07-29T00:35:32.296Z,100141.81
2022-07-29T00:38:04.735Z,100147.19
2022-07-29T00:40:35.743Z,100144.34
2022-07-29T00:43:06.993Z,100142.72
2022-07-29T00:45:37.981Z,100156.16
2022-07-29T00:48:10.390Z,100146.00
2022-07-29T00:50:43.398Z,100144.38
2022-07-29T00:53:16.807Z,100147.22
2022-07-29T00:55:47.926Z,100140.38
2022-07-29T00:58:19.600Z,100135.91
2022-07-29T01:00:50.829Z,100142.41
2022-07-29T01:03:21.989Z,100151.38
2022-07-29T01:05:55.980Z,100146.59
2022-07-29T01:08:28.785Z,100148.22
2022-07-29T01:11:00.297Z,100145.84
2022-07-29T01:13:33.332Z,100145.91
2022-07-29T01:16:17.053Z,100137.44
2022-07-29T01:18:55.609Z,100148.88
2022-07-29T01:21:54.993Z,100146.00
2022-07-29T01:24:50.816Z,100136.28
2022-07-29T01:27:45.537Z,100142.78
2022-07-29T01:30:18.257Z,100137.88
2022-07-29T01:32:56.561Z,100137.88
2022-07-29T01:35:32.314Z,100143.59
2022-07-29T01:38:15.552Z,100143.59
2022-07-29T01:40:55.503Z,100140.38
2022-07-29T01:43:39.945Z,100145.72
2022-07-29T01:46:20.333Z,100144.88
2022-07-29T01:48:57.335Z,100150.59
2022-07-29T01:51:36.757Z,100150.59
2022-07-29T01:54:16.910Z,100148.56
2022-07-29T01:56:50.828Z,100145.72
2022-07-29T01:59:24.832Z,100150.16
2022-07-29T02:02:01.151Z,100145.25
2022-07-29T02:04:35.354Z,100152.56
2022-07-29T02:07:10.388Z,100154.19
2022-07-29T02:09:45.588Z,100149.72
2022-07-29T02:12:20.288Z,100150.97
2022-07-29T02:14:57.258Z,100161.13
2022-07-29T02:17:38.874Z,100152.56
2022-07-29T02:20:13.689Z,100143.66
2022-07-29T02:22:47.629Z,100150.16
2022-07-29T02:25:20.994Z,100150.16
2022-07-29T02:27:54.795Z,100154.25
2022-07-29T02:30:27.668Z,100152.63
2022-07-29T02:33:02.556Z,100144.09
2022-07-29T02:35:34.828Z,100142.50
2022-07-29T02:38:23.784Z,100154.66
2022-07-29T02:40:57.548Z,100157.97
2022-07-29T02:43:30.831Z,100152.25
2022-07-29T02:46:12.692Z,100151.88
2022-07-29T02:49:07.950Z,100147.88
2022-07-29T02:51:48.008Z,100149.94
2022-07-29T02:54:34.782Z,100151.16
2022-07-29T02:57:19.371Z,100149.56
2022-07-29T02:59:54.056Z,100166.63
2022-07-29T03:02:26.206Z,100160.94
2022-07-29T03:05:03.423Z,100164.22
2022-07-29T03:07:37.556Z,100173.19
2022-07-29T03:10:13.613Z,100170.34
2022-07-29T03:12:47.189Z,100169.56
2022-07-29T03:15:18.599Z,100177.28
2022-07-29T03:17:50.438Z,100173.63
2022-07-29T03:20:23.880Z,100182.97
2022-07-29T03:22:54.995Z,100175.66
2022-07-29T03:25:26.614Z,100172.03
2022-07-29T03:27:57.957Z,100177.72
2022-07-29T03:30:29.012Z,100175.66
2022-07-29T03:33:00.027Z,100172.81
2022-07-29T03:35:34.301Z,100180.13
2022-07-29T03:38:05.437Z,100187.88
2022-07-29T03:40:46.088Z,100188.66
2022-07-29T03:43:21.464Z,100194.34
2022-07-29T03:45:56.816Z,100194.34
2022-07-29T03:48:30.989Z,100196.78
2022-07-29T03:51:04.624Z,100200.44
2022-07-29T03:55:38.277Z,100195.53
2022-07-29T03:56:57.287Z,100201.66
2022-07-29T03:59:30.896Z,100197.22
2022-07-29T04:02:03.212Z,100199.66
2022-07-29T04:04:36.776Z,100203.28
2022-07-29T04:07:09.348Z,100210.59
2022-07-29T04:09:40.406Z,100206.91
2022-07-29T04:12:13.103Z,100214.22
2022-07-29T04:14:44.473Z,100212.19
2022-07-29T04:17:15.485Z,100216.66
2022-07-29T04:19:47.040Z,100217.47
2022-07-29T04:22:20.200Z,100221.91
2022-07-29T04:24:50.729Z,100223.97
2022-07-29T04:27:21.824Z,100220.69
2022-07-29T04:29:56.281Z,100223.09
2022-07-29T04:32:27.821Z,100230.41
2022-07-29T04:34:58.088Z,100235.25
2022-07-29T04:37:29.853Z,100242.47
2022-07-29T04:40:00.109Z,100237.94
2022-07-29T04:42:31.655Z,100241.59
2022-07-29T04:45:03.134Z,100239.91
2022-07-29T04:47:39.394Z,100242.31
2022-07-29T04:50:11.789Z,100245.53
2022-07-29T04:52:44.520Z,100242.25
2022-07-29T04:55:15.410Z,100242.63
2022-07-29T04:57:46.241Z,100251.09
2022-07-29T05:00:17.791Z,100240.91
2022-07-29T05:02:48.186Z,100249.81
2022-07-29T05:05:19.619Z,100239.97
2022-07-29T05:07:52.792Z,100246.84
2022-07-29T05:10:24.415Z,100243.09
2022-07-29T05:12:54.782Z,100242.25
2022-07-29T05:15:26.745Z,100238.53
2022-07-29T05:17:58.412Z,100244.94
2022-07-29T05:20:30.146Z,100246.50
2022-07-29T05:23:05.906Z,100236.28
2022-07-29T05:25:43.109Z,100233.81
2022-07-29T05:28:16.767Z,100236.63
2022-07-29T05:30:48.200Z,100229.22
2022-07-29T05:33:34.885Z,100230.41
2022-07-29T05:36:09.413Z,100224.28
2022-07-29T05:38:41.897Z,100231.16
2022-07-29T05:41:12.521Z,100236.78
2022-07-29T05:43:43.528Z,100235.91
2022-07-29T05:46:15.611Z,100241.09
2022-07-29T05:48:46.287Z,100242.16
2022-07-29T05:51:17.129Z,100244.53
2022-07-29T05:53:49.743Z,100248.91
2022-07-29T05:56:21.376Z,100240.28
2022-07-29T05:58:52.352Z,100238.53
2022-07-29T06:01:24.095Z,100244.91
2022-07-29T06:03:55.155Z,100242.34
2022-07-29T06:06:26.756Z,100246.72
2022-07-29T06:08:59.882Z,100245.84
2022-07-29T06:11:43.485Z,100247.00
2022-07-29T06:14:14.588Z,100251.84
2022-07-29T06:16:46.239Z,100250.16
2022-07-29T06:19:17.294Z,100250.06
2022-07-29T06:21:49.842Z,100255.28
2022-07-29T06:24:23.203Z,100252.69
2022-07-29T06:26:54.276Z,100246.44
2022-07-29T06:29:25.396Z,100256.56
2022-07-29T06:31:56.475Z,100256.84
2022-07-29T06:34:27.038Z,100252.66
2022-07-29T06:36:58.085Z,100258.28
2022-07-29T06:39:31.185Z,100264.72
2022-07-29T06:42:02.142Z,100268.31
2022-07-29T06:44:35.458Z,100270.63
2022-07-29T06:47:06.503Z,100269.28
2022-07-29T06:49:37.745Z,100264.31
2022-07-29T06:52:09.856Z,100250.72
2022-07-29T06:54:49.455Z,100259.56
2022-07-29T06:57:21.266Z,100251.28
2022-07-29T06:59:52.452Z,100263.81
2022-07-29T07:02:22.879Z,100258.38
2022-07-29T07:04:53.961Z,100265.13
2022-07-29T07:07:24.692Z,100264.16
2022-07-29T07:09:57.542Z,100270.94
2022-07-29T07:12:28.141Z,100269.59
2022-07-29T07:14:59.149Z,100263.34
2022-07-29T07:17:29.948Z,100265.28
2022-07-29T07:20:01.169Z,100273.34
2022-07-29T07:22:38.859Z,100260.56
2022-07-29T07:25:14.586Z,100265.72
2022-07-29T07:27:45.138Z,100265.66
2022-07-29T07:30:16.953Z,100274.47
2022-07-29T07:32:48.990Z,100272.69
2022-07-29T07:35:20.579Z,100281.50
2022-07-29T07:37:51.946Z,100277.66
2022-07-29T07:40:25.401Z,100274.22
2022-07-29T07:42:56.797Z,100277.84
2022-07-29T07:45:28.622Z,100278.88
2022-07-29T07:48:00.469Z,100273.03
2022-07-29T07:50:31.538Z,100268.50
2022-07-29T07:53:03.566Z,100274.91
2022-07-29T07:56:07.654Z,100272.75
2022-07-29T07:58:27.901Z,100272.28
2022-07-29T08:00:58.808Z,100279.16
2022-07-29T08:03:29.955Z,100281.13
2022-07-29T08:06:01.183Z,100278.97
2022-07-29T08:08:31.899Z,100279.63
2022-07-29T08:11:09.554Z,100272.53
2022-07-29T08:13:41.546Z,100269.25
2022-07-29T08:16:16.837Z,100274.88
2022-07-29T08:18:49.405Z,100271.56
2022-07-29T08:21:21.127Z,100273.16
2022-07-29T08:23:59.899Z,100269.06
2022-07-29T08:26:36.123Z,100268.16
2022-07-29T08:29:07.492Z,100255.88
2022-07-29T08:31:37.982Z,100254.63
2022-07-29T08:34:09.216Z,100254.97
2022-07-29T08:36:40.141Z,100255.31
2022-07-29T08:39:11.604Z,100255.63
2022-07-29T08:42:01.845Z,100249.47
2022-07-29T08:44:33.922Z,100259.69
2022-07-29T08:47:05.431Z,100242.00
2022-07-29T08:49:39.631Z,100252.22
2022-07-29T08:52:14.444Z,100252.69
2022-07-29T08:54:50.488Z,100253.00
2022-07-29T08:57:25.855Z,100253.81
2022-07-29T09:00:08.008Z,100253.34
2022-07-29T09:02:49.301Z,100252.88
2022-07-29T09:05:20.501Z,100258.97
2022-07-29T09:07:52.508Z,100252.81
2022-07-29T09:10:23.896Z,100258.06
2022-07-29T09:12:58.814Z,100253.94
2022-07-29T09:15:30.254Z,100252.69
2022-07-29T09:18:01.770Z,100254.28
2022-07-29T09:20:53.219Z,100254.63
2022-07-29T09:23:24.867Z,100246.84
2022-07-29T09:25:56.522Z,100252.91
2022-07-29T09:28:29.811Z,100246.25
2022-07-29T09:31:02.221Z,100247.06
2022-07-29T09:33:41.506Z,100243.72
2022-07-29T09:36:13.980Z,100253.59
2022-07-29T09:38:45.205Z,100249.94
2022-07-29T09:41:16.662Z,100256.81
2022-07-29T09:43:58.804Z,100255.53
2022-07-29T09:46:30.495Z,100249.03
2022-07-29T09:49:16.691Z,100249.34
2022-07-29T09:51:47.760Z,100250.97
2022-07-29T09:54:29.500Z,100253.41
2022-07-29T09:57:00.724Z,100257.88
2022-07-29T09:59:33.900Z,100252.03
2022-07-29T10:02:05.446Z,100249.94
2022-07-29T10:04:44.742Z,100247.09
2022-07-29T10:07:15.936Z,100248.00
2022-07-29T10:09:58.038Z,100252.16
2022-07-29T10:12:30.130Z,100248.47
2022-07-29T10:15:06.532Z,100238.59
2022-07-29T10:17:37.886Z,100244.34
2022-07-29T10:20:16.459Z,100242.25
2022-07-29T10:22:53.362Z,100232.88
2022-07-29T10:25:25.870Z,100226.34
2022-07-29T10:27:57.584Z,100228.88
2022-07-29T10:30:32.260Z,100227.22
2022-07-29T10:33:26.175Z,100230.09
2022-07-29T10:36:30.459Z,100229.66
2022-07-29T10:39:15.934Z,100232.88
2022-07-29T10:42:09.175Z,100230.34
2022-07-29T10:44:45.006Z,100222.66
2022-07-29T10:47:28.451Z,100228.06
2022-07-29T10:50:05.527Z,100224.03
2022-07-29T10:52:59.758Z,100218.41
2022-07-29T10:55:44.679Z,100228.72
2022-07-29T10:58:24.619Z,100218.06
2022-07-29T11:01:37.210Z,100218.41
2022-07-29T11:04:13.164Z,100221.63
2022-07-29T11:07:15.283Z,100217.50
2022-07-29T11:09:46.921Z,100225.75
2022-07-29T11:12:51.563Z,100220.47
2022-07-29T11:15:28.691Z,100223.00
2022-07-29T11:18:15.148Z,100212.31
2022-07-29T11:20:52.305Z,100208.78
2022-07-29T11:23:33.864Z,100213.72
2022-07-29T11:26:27.502Z,100203.50
2022-07-29T11:29:07.774Z,100207.97
2022-07-29T11:31:45.300Z,100210.06
2022-07-29T11:34:29.756Z,100205.13
2022-07-29T11:37:28.392Z,100203.97
2022-07-29T11:40:24.095Z,100202.72
2022-07-29T11:42:55.290Z,100201.91
2022-07-29T11:45:48.488Z,100190.78
2022-07-29T11:48:29.754Z,100184.38
2022-07-29T11:51:03.200Z,100181.97
2022-07-29T11:53:37.541Z,100187.69
2022-07-29T11:56:12.488Z,100177.97
2022-07-29T11:58:48.953Z,100171.88
2022-07-29T12:01:24.841Z,100173.50
2022-07-29T12:04:08.480Z,100175.88
2022-07-29T12:06:39.155Z,100163.53
2022-07-29T12:09:15.261Z,100157.78
2022-07-29T12:11:47.801Z,100165.25
2022-07-29T12:14:32.669Z,100171.31
2022-07-29T12:17:08.058Z,100156.66
2022-07-29T12:19:47.337Z,100171.31
2022-07-29T12:22:30.551Z,100177.50
2022-07-29T12:25:32.006Z,100170.16
2022-07-29T12:28:04.832Z,100172.25
2022-07-29T12:30:44.991Z,100175.22
2022-07-29T12:33:23.737Z,100172.81
2022-07-29T12:36:06.050Z,100173.63
2022-07-29T12:38:44.101Z,100167.88
2022-07-29T12:41:17.289Z,100171.19
2022-07-29T12:43:58.583Z,100171.19
2022-07-29T12:46:29.884Z,100173.25
2022-07-29T12:49:01.262Z,100175.78
2022-07-29T12:51:38.026Z,100177.03
2022-07-29T12:54:13.266Z,100167.66
2022-07-29T12:56:48.801Z,100173.38
2022-07-29T12:59:21.739Z,100164.44
2022-07-29T13:01:56.423Z,100167.31
2022-07-29T13:04:32.778Z,100169.03
2022-07-29T13:07:05.597Z,100167.06
2022-07-29T13:09:44.289Z,100166.63
2022-07-29T13:12:18.763Z,100158.47
2022-07-29T13:14:51.663Z,100178.19
2022-07-29T13:17:25.309Z,100164.56
2022-07-29T13:20:10.632Z,100160.50
2022-07-29T13:22:42.003Z,100164.00
2022-07-29T13:25:14.792Z,100161.81
2022-07-29T13:27:48.427Z,100156.31
2022-07-29T13:30:18.979Z,100158.72
2022-07-29T13:32:50.153Z,100152.75
2022-07-29T13:35:21.347Z,100147.94
2022-07-29T13:37:52.737Z,100151.75
2022-07-29T13:40:23.349Z,100149.75
2022-07-29T13:42:56.676Z,100155.13
2022-07-29T13:45:29.321Z,100153.22
2022-07-29T13:48:00.921Z,100145.06
2022-07-29T13:50:32.167Z,100151.25
2022-07-29T13:53:03.367Z,100154.22
2022-07-29T13:55:34.255Z,100151.50
2022-07-29T13:58:07.248Z,100144.59
2022-07-29T14:00:37.941Z,100150.44
2022-07-29T14:03:10.043Z,100143.56
2022-07-29T14:05:41.046Z,100148.59
2022-07-29T14:08:12.538Z,100146.66
2022-07-29T14:10:43.648Z,100146.75
2022-07-29T14:13:24.747Z,100135.88
2022-07-29T14:15:57.222Z,100145.38
2022-07-29T14:18:28.762Z,100136.44
2022-07-29T14:21:00.731Z,100140.91
2022-07-29T14:23:31.706Z,100139.28
2022-07-29T14:26:03.233Z,100132.88
2022-07-29T14:28:42.162Z,100132.88
2022-07-29T14:31:12.517Z,100135.38
2022-07-29T14:33:44.171Z,100136.63
2022-07-29T14:36:17.902Z,100139.59
2022-07-29T14:38:49.313Z,100142.22
2022-07-29T14:41:20.658Z,100136.63
2022-07-29T14:43:55.034Z,100134.66
2022-07-29T14:46:26.471Z,100138.44
2022-07-29T14:48:57.673Z,100141.75
2022-07-29T14:51:32.491Z,100128.38
2022-07-29T14:54:05.469Z,100134.09
2022-07-29T14:56:37.518Z,100134.97
2022-07-29T14:59:10.761Z,100139.09
2022-07-29T15:01:41.427Z,100138.38
2022-07-29T15:04:12.795Z,100145.81
2022-07-29T15:06:49.826Z,100138.94
2022-07-29T15:09:20.830Z,100151.66
2022-07-29T15:11:52.022Z,100150.38
2022-07-29T15:14:25.586Z,100150.84
2022-07-29T15:16:57.554Z,100150.03
2022-07-29T15:19:33.170Z,100146.38
2022-07-29T15:22:06.429Z,100142.72
2022-07-29T15:24:37.438Z,100147.25
2022-07-29T15:27:12.020Z,100155.84
2022-07-29T15:29:45.490Z,100147.34
2022-07-29T15:32:17.050Z,100155.56
2022-07-29T15:34:48.763Z,100150.31
2022-07-29T15:37:20.788Z,100148.34
2022-07-29T15:39:51.965Z,100142.75
2022-07-29T15:42:23.680Z,100142.84
2022-07-29T15:44:57.445Z,100139.16
2022-07-29T15:47:28.715Z,100140.88
2022-07-29T15:50:02.706Z,100145.81
2022-07-29T15:52:35.924Z,100141.34
2022-07-29T15:55:07.546Z,100147.06
2022-07-29T15:57:41.549Z,100141.78
2022-07-29T16:00:20.385Z,100150.00
2022-07-29T16:02:50.620Z,100151.69
2022-07-29T16:05:21.980Z,100157.06
2022-07-29T16:07:53.263Z,100156.72
2022-07-29T16:10:24.576Z,100160.94
2022-07-29T16:13:08.505Z,100161.47
2022-07-29T16:16:02.027Z,100160.75
2022-07-29T16:18:37.834Z,100160.03
2022-07-29T16:21:09.746Z,100161.72
2022-07-29T16:23:41.269Z,100161.00
2022-07-29T16:26:15.654Z,100168.44
2022-07-29T16:28:47.673Z,100170.13
2022-07-29T16:31:23.660Z,100170.19
2022-07-29T16:33:56.074Z,100180.47
2022-07-29T16:36:32.666Z,100179.31
2022-07-29T16:39:03.785Z,100182.28
2022-07-29T16:41:34.729Z,100180.75
2022-07-29T16:44:05.447Z,100179.56
2022-07-29T16:46:40.235Z,100193.06
2022-07-29T16:49:12.746Z,100189.06
2022-07-29T16:51:51.998Z,100190.28
2022-07-29T16:54:23.605Z,100187.44
2022-07-29T16:56:54.754Z,100185.03
2022-07-29T16:59:28.550Z,100194.03
2022-07-29T17:02:05.364Z,100198.59
2022-07-29T17:04:35.755Z,100194.13
2022-07-29T17:07:06.986Z,100205.53
2022-07-29T17:09:38.371Z,100207.59
2022-07-29T17:12:10.891Z,100201.91
2022-07-29T17:14:42.234Z,100197.44
2022-07-29T17:17:15.710Z,100201.91
2022-07-29T17:19:51.546Z,100203.94
2022-07-29T17:22:25.381Z,100218.22
2022-07-29T17:24:55.680Z,100214.56
2022-07-29T17:27:27.522Z,100206.00
2022-07-29T17:29:58.948Z,100205.19
2022-07-29T17:32:37.430Z,100213.31
2022-07-29T17:35:25.828Z,100220.28
2022-07-29T17:37:57.115Z,100218.72
2022-07-29T17:40:29.122Z,100217.91
2022-07-29T17:42:59.893Z,100224.06
2022-07-29T17:45:48.724Z,100223.69
2022-07-29T17:48:24.170Z,100228.63
2022-07-29T17:50:56.582Z,100234.75
2022-07-29T17:53:28.107Z,100236.81
2022-07-29T17:55:59.241Z,100243.31
2022-07-29T17:58:33.298Z,100240.47
2022-07-29T18:01:04.755Z,100244.56
2022-07-29T18:03:39.066Z,100248.66
2022-07-29T18:06:10.885Z,100251.16
2022-07-29T18:08:43.285Z,100247.94
2022-07-29T18:11:14.867Z,100252.03
2022-07-29T18:13:46.489Z,100252.50
2022-07-29T18:16:18.382Z,100257.38
2022-07-29T18:18:51.757Z,100254.53
2022-07-29T18:21:43.688Z,100263.56
2022-07-29T18:24:15.018Z,100261.16
2022-07-29T18:27:01.283Z,100257.94
2022-07-29T18:29:31.970Z,100254.69
2022-07-29T18:32:02.432Z,100264.50
2022-07-29T18:34:35.080Z,100262.91
2022-07-29T18:37:06.214Z,100271.91
2022-07-29T18:39:37.313Z,100266.19
2022-07-29T18:42:08.877Z,100264.59
2022-07-29T18:44:42.873Z,100267.53
2022-07-29T18:47:15.522Z,100272.88
2022-07-29T18:49:48.820Z,100277.75
2022-07-29T18:52:20.020Z,100269.19
2022-07-29T18:54:50.911Z,100274.91
2022-07-29T18:57:54.890Z,100271.25
2022-07-29T19:00:18.734Z,100281.50
2022-07-29T19:02:50.058Z,100278.72
2022-07-29T19:05:26.746Z,100269.78
2022-07-29T19:08:15.012Z,100279.16
2022-07-29T19:10:50.571Z,100275.13
2022-07-29T19:13:24.268Z,100267.03
2022-07-29T19:16:00.019Z,100280.47
2022-07-29T19:18:31.087Z,100274.75
2022-07-29T19:21:07.536Z,100277.53
2022-07-29T19:24:05.850Z,100274.25
2022-07-29T19:26:38.250Z,100275.06
2022-07-29T19:29:37.241Z,100274.25
2022-07-29T19:35:48.403Z,100268.19
2022-07-29T19:38:27.168Z,100261.66
2022-07-29T19:48:25.734Z,100258.94
2022-07-29T19:51:03.864Z,100256.91
2022-07-29T19:53:38.781Z,100249.13
2022-07-29T19:56:15.733Z,100252.81
2022-07-29T19:58:48.697Z,100252.38
2022-07-29T20:01:19.940Z,100253.19
2022-07-29T20:03:51.330Z,100256.84
2022-07-29T20:06:26.157Z,100262.09
2022-07-29T20:08:59.456Z,100262.09
2022-07-29T20:11:37.452Z,100263.72
2022-07-29T20:14:08.658Z,100264.50
2022-07-29T20:16:40.203Z,100258.00
2022-07-29T20:19:10.786Z,100251.94
2022-07-29T20:21:42.753Z,100257.28
2022-07-29T20:24:16.449Z,100257.31
2022-07-29T20:26:47.684Z,100260.25
2022-07-29T20:29:18.586Z,100261.94
2022-07-29T20:31:53.280Z,100258.25
2022-07-29T20:34:28.280Z,100254.63
2022-07-29T20:37:01.129Z,100261.50
2022-07-29T20:39:35.249Z,100260.69
2022-07-29T20:42:20.498Z,100258.25
2022-07-29T20:44:54.736Z,100255.94
2022-07-29T20:47:26.571Z,100257.19
2022-07-29T20:49:58.238Z,100261.66
2022-07-29T20:52:30.880Z,100253.09
2022-07-29T20:55:04.114Z,100246.13
2022-07-29T20:57:38.928Z,100246.94
2022-07-29T21:00:12.854Z,100246.94
2022-07-29T21:02:44.856Z,100246.94
2022-07-29T21:05:16.514Z,100248.16
2022-07-29T21:07:49.512Z,100244.53
2022-07-29T21:10:22.126Z,100241.69
2022-07-29T21:12:52.601Z,100236.75
2022-07-29T21:15:23.919Z,100238.81
2022-07-29T21:18:01.903Z,100239.63
2022-07-29T21:20:33.461Z,100233.91
2022-07-29T21:23:04.077Z,100225.34
2022-07-29T21:25:45.942Z,100219.22
2022-07-29T21:28:35.977Z,100220.47
2022-07-29T21:31:13.152Z,100215.22
2022-07-29T21:33:47.252Z,100213.59
2022-07-29T21:36:47.352Z,100215.63
2022-07-29T21:39:09.355Z,100204.69
2022-07-29T21:41:42.857Z,100205.47
2022-07-29T21:44:13.086Z,100207.06
2022-07-29T21:46:44.984Z,100212.41
2022-07-29T21:49:15.467Z,100207.59
2022-07-29T21:51:47.002Z,100200.28
2022-07-29T21:54:18.583Z,100198.22
2022-07-29T21:56:54.967Z,100207.59
2022-07-29T21:59:28.171Z,100202.31
2022-07-29T22:02:02.887Z,100208.09
2022-07-29T22:04:53.750Z,100199.56
2022-07-29T22:07:24.715Z,100201.59
2022-07-29T22:10:16.585Z,100199.19
2022-07-29T22:13:01.904Z,100202.84
2022-07-29T22:15:34.030Z,100204.47
2022-07-29T22:18:06.278Z,100194.28
2022-07-29T22:20:38.724Z,100200.00
2022-07-29T22:23:12.524Z,100189.47
2022-07-29T22:25:44.146Z,100190.31
2022-07-29T22:28:18.038Z,100191.22
2022-07-29T22:30:51.587Z,100182.31
2022-07-29T22:33:22.888Z,100183.09
2022-07-29T22:36:06.166Z,100176.97
2022-07-29T22:42:30.677Z,100170.53
2022-07-29T22:45:16.544Z,100171.34
2022-07-29T22:47:48.770Z,100185.16
2022-07-29T22:50:20.664Z,100178.22
2022-07-29T22:52:52.448Z,100173.31
2022-07-29T22:55:23.898Z,100171.28
2022-07-29T22:57:55.664Z,100169.22
2022-07-29T23:00:28.093Z,100170.03
2022-07-29T23:02:58.401Z,100167.59
2022-07-29T23:05:30.227Z,100179.81
2022-07-29T23:08:01.484Z,100179.00
2022-07-29T23:10:33.760Z,100173.31
2022-07-29T23:13:05.132Z,100174.13
2022-07-29T23:15:38.258Z,100176.16
2022-07-29T23:18:09.176Z,100181.84
2022-07-29T23:20:40.147Z,100178.22
2022-07-29T23:23:11.403Z,100175.34
2022-07-29T23:25:42.483Z,100175.81
2022-07-29T23:28:14.430Z,100179.44
2022-07-29T23:30:47.868Z,100173.75
2022-07-29T23:33:18.958Z,100175.81
2022-07-29T23:35:50.273Z,100171.34
2022-07-29T23:39:06.121Z,100168.53
2022-07-29T23:42:00.302Z,100174.69
2022-07-29T23:45:44.952Z,100169.44
2022-07-29T23:51:19.083Z,100173.94
2022-07-29T23:53:54.311Z,100175.56
2022-07-29T23:56:25.862Z,100175.56
2022-07-29T23:58:57.244Z,100175.19
